Time;durP1;ratioP1;P1;durP2;ratioP2;P2;SDS_P1;SDS_P2;PMS_P1;PMS_P2;Temp;Humidity;BMP_temperature;BMP_pressure;BME280_temperature;BME280_humidity;BME280_pressure;Samples;Min_cycle;Max_cycle;Signal;HPM_P1;HPM_P2
2022/08/13 00:01:04;;;;;;;4.47;2.30;;;;;;;20.80;nan;101526.00;2079657;28;20036;-67
2022/08/13 00:02:10;;;;;;;5.35;2.20;;;;;;;20.77;nan;101527.44;2071599;28;20042;-66
2022/08/13 00:03:32;;;;;;;3.75;2.13;;;;;;;20.79;nan;101530.66;2063956;28;20057;-66
2022/08/13 00:04:41;;;;;;;3.55;2.10;;;;;;;20.79;nan;101527.94;2062163;28;20060;-67
2022/08/13 00:05:45;;;;;;;4.75;2.20;;;;;;;20.79;nan;101529.88;2057024;28;20415;-66
2022/08/13 00:07:07;;;;;;;4.38;2.35;;;;;;;20.78;nan;101528.28;2055823;28;20051;-67
2022/08/13 00:08:10;;;;;;;2.35;2.10;;;;;;;20.77;nan;101530.19;2065776;28;20036;-67
2022/08/13 00:09:15;;;;;;;6.72;2.58;;;;;;;20.78;nan;101536.47;2079793;28;20123;-67
2022/08/13 00:10:28;;;;;;;10.38;2.50;;;;;;;20.77;nan;101530.19;2079227;28;20036;-67
2022/08/13 00:13:03;;;;;;;4.00;2.28;;;;;;;20.76;nan;101535.97;2079965;28;20045;-67
2022/08/13 00:14:06;;;;;;;4.75;1.90;;;;;;;20.79;nan;101532.59;2069804;28;20045;-67
2022/08/13 00:15:13;;;;;;;6.78;2.70;;;;;;;20.79;nan;101529.88;2071436;28;20038;-67
2022/08/13 00:16:15;;;;;;;5.30;2.40;;;;;;;20.77;nan;101538.38;2068262;28;20045;-67
2022/08/13 00:17:18;;;;;;;5.55;2.75;;;;;;;20.77;nan;101537.56;2076962;28;20113;-67
2022/08/13 00:18:23;;;;;;;3.22;2.70;;;;;;;20.74;nan;101532.75;2071616;28;20073;-67
2022/08/13 00:19:30;;;;;;;3.70;2.50;;;;;;;20.76;nan;101530.50;2063453;28;20050;-67
2022/08/13 00:20:42;;;;;;;3.17;2.10;;;;;;;20.75;nan;101529.72;2079944;28;20037;-67
2022/08/13 00:21:44;;;;;;;2.90;2.00;;;;;;;20.75;nan;101532.44;2076761;28;20033;-67
2022/08/13 00:22:48;;;;;;;5.28;2.30;;;;;;;20.71;nan;101527.94;2070034;28;20425;-67
2022/08/13 00:23:54;;;;;;;4.32;2.38;;;;;;;20.73;nan;101531.97;2063536;28;20041;-67
2022/08/13 00:24:57;;;;;;;9.80;2.47;;;;;;;20.74;nan;101533.59;2071800;28;20044;-67
2022/08/13 00:26:00;;;;;;;5.53;2.20;;;;;;;20.72;nan;101537.75;2071354;28;20077;-68
2022/08/13 00:27:07;;;;;;;4.82;2.22;;;;;;;20.71;nan;101533.41;2069743;28;20065;-67
2022/08/13 00:28:18;;;;;;;2.67;2.20;;;;;;;20.68;nan;101534.03;2076588;28;20077;-67
2022/08/13 00:29:26;;;;;;;7.43;2.30;;;;;;;20.64;nan;101530.38;2073084;28;20058;-67
2022/08/13 00:30:31;;;;;;;6.32;2.50;;;;;;;20.62;nan;101525.22;2079512;28;20029;-66
2022/08/13 00:31:40;;;;;;;4.07;2.33;;;;;;;20.63;nan;101528.75;2079553;28;20049;-67
2022/08/13 00:32:45;;;;;;;4.25;2.17;;;;;;;20.59;nan;101526.69;2078881;28;20694;-66
2022/08/13 00:33:51;;;;;;;3.58;2.20;;;;;;;20.62;nan;101525.22;2077821;28;20044;-66
2022/08/13 00:34:56;;;;;;;4.95;2.30;;;;;;;20.64;nan;101522.16;2079411;28;20037;-67
2022/08/13 00:36:00;;;;;;;5.68;2.13;;;;;;;20.65;nan;101529.22;2079116;28;20037;-67
2022/08/13 00:37:03;;;;;;;4.32;2.40;;;;;;;20.65;nan;101527.31;2073205;28;20413;-67
2022/08/13 00:38:09;;;;;;;3.45;2.33;;;;;;;20.63;nan;101529.56;2067033;28;20061;-68
2022/08/13 00:39:16;;;;;;;3.80;2.28;;;;;;;20.65;nan;101531.97;2064231;28;20034;-67
2022/08/13 00:40:18;;;;;;;5.10;2.40;;;;;;;20.62;nan;101524.41;2079289;28;20045;-66
2022/08/13 00:41:38;;;;;;;4.05;2.40;;;;;;;20.65;nan;101529.22;2079513;28;20029;-67
2022/08/13 00:42:40;;;;;;;3.72;2.35;;;;;;;20.65;nan;101529.22;2077070;28;20068;-68
2022/08/13 00:43:47;;;;;;;5.65;2.60;;;;;;;20.61;nan;101531.81;2068696;28;20045;-67
2022/08/13 00:44:55;;;;;;;7.22;2.90;;;;;;;20.62;nan;101529.88;2071011;28;20046;-68
2022/08/13 00:46:04;;;;;;;2.55;2.20;;;;;;;20.60;nan;101528.28;2064331;28;20034;-67
2022/08/13 00:48:46;;;;;;;5.07;2.33;;;;;;;20.52;nan;101531.84;2079432;28;20037;-67
2022/08/13 00:50:07;;;;;;;3.85;2.45;;;;;;;20.44;nan;101529.88;2071328;28;20049;-67
2022/08/13 00:51:16;;;;;;;5.50;2.45;;;;;;;20.41;nan;101522.31;2072570;28;20054;-67
2022/08/13 00:52:19;;;;;;;3.58;2.20;;;;;;;20.40;nan;101526.19;2063341;28;20053;-67
2022/08/13 00:53:25;;;;;;;3.65;2.30;;;;;;;20.33;nan;101529.38;2064873;28;20517;-68
2022/08/13 00:54:30;;;;;;;5.55;3.03;;;;;;;20.29;nan;101527.59;2079576;28;20571;-67
2022/08/13 00:55:36;;;;;;;4.80;2.30;;;;;;;20.34;nan;101520.06;2071398;28;20041;-68
2022/08/13 00:56:38;;;;;;;7.22;4.03;;;;;;;20.36;nan;101517.81;2071637;28;20037;-65
2022/08/13 00:57:48;;;;;;;10.38;5.60;;;;;;;20.40;nan;101522.63;2071201;28;20056;-67
2022/08/13 00:58:52;;;;;;;12.55;7.88;;;;;;;20.38;nan;101523.75;2065292;28;20129;-65
2022/08/13 00:59:55;;;;;;;10.85;5.82;;;;;;;20.38;nan;101525.69;2063741;28;20038;-66
2022/08/13 01:01:02;;;;;;;5.60;3.50;;;;;;;20.40;nan;101523.44;2071832;28;20045;-67
2022/08/13 01:02:07;;;;;;;4.05;2.50;;;;;;;20.42;nan;101520.38;2071132;28;20069;-66
2022/08/13 01:03:10;;;;;;;4.90;2.38;;;;;;;20.42;nan;101523.09;2071239;28;20040;-66
2022/08/13 01:04:22;;;;;;;4.43;2.33;;;;;;;20.42;nan;101518.44;2063029;28;20047;-67
2022/08/13 01:05:26;;;;;;;4.85;2.28;;;;;;;20.41;nan;101521.50;2063469;28;20049;-67
2022/08/13 01:06:28;;;;;;;2.88;1.92;;;;;;;20.33;nan;101514.91;2071386;28;20045;-68
2022/08/13 01:07:33;;;;;;;4.65;2.47;;;;;;;20.25;nan;101510.25;2078253;28;20044;-67
2022/08/13 01:08:40;;;;;;;4.32;2.42;;;;;;;20.22;nan;101517.16;2063207;28;20054;-67
2022/08/13 01:09:45;;;;;;;7.97;3.60;;;;;;;20.17;nan;101513.78;2052419;28;20136;-67
2022/08/13 01:11:01;;;;;;;4.78;2.88;;;;;;;20.14;nan;101509.75;2064590;28;20045;-67
2022/08/13 01:12:09;;;;;;;6.65;3.05;;;;;;;20.09;nan;101515.38;2069105;28;20046;-65
2022/08/13 01:13:13;;;;;;;7.03;3.35;;;;;;;20.12;nan;101512.81;2071355;28;20057;-67
2022/08/13 01:14:20;;;;;;;5.95;3.15;;;;;;;20.13;nan;101513.63;2071437;28;20421;-67
2022/08/13 01:15:26;;;;;;;4.63;3.00;;;;;;;20.09;nan;101513.47;2063019;28;20058;-67
2022/08/13 01:16:28;;;;;;;7.25;3.08;;;;;;;20.05;nan;101511.66;2055856;28;20455;-67
2022/08/13 01:17:33;;;;;;;6.88;2.83;;;;;;;20.05;nan;101511.66;2063234;28;20379;-67
2022/08/13 01:18:40;;;;;;;9.00;2.83;;;;;;;20.05;nan;101517.13;2067959;28;20026;-67
2022/08/13 01:19:44;;;;;;;5.53;2.88;;;;;;;20.01;nan;101511.50;2079397;28;20080;-66
2022/08/13 01:20:58;;;;;;;5.32;2.53;;;;;;;20.07;nan;101510.22;2079513;28;20036;-67
2022/08/13 01:22:00;;;;;;;5.22;2.78;;;;;;;20.05;nan;101501.59;2085586;28;20039;-67
2022/08/13 01:23:07;;;;;;;36.80;15.43;;;;;;;20.04;nan;101504.63;2070424;28;20049;-66
2022/08/13 01:24:11;;;;;;;6.78;3.97;;;;;;;20.02;nan;101502.22;2063992;28;20049;-66
2022/08/13 01:25:20;;;;;;;4.95;3.25;;;;;;;19.99;nan;101499.31;2055370;28;20426;-66
2022/08/13 01:26:23;;;;;;;8.50;3.45;;;;;;;19.97;nan;101499.63;2065306;28;20045;-65
2022/08/13 01:27:30;;;;;;;7.70;3.17;;;;;;;19.96;nan;101498.03;2078602;28;20056;-65
2022/08/13 01:28:39;;;;;;;6.45;2.97;;;;;;;19.96;nan;101502.69;2069873;28;20061;-66
2022/08/13 01:29:47;;;;;;;8.40;3.13;;;;;;;19.97;nan;101494.16;2062924;28;20050;-65
2022/08/13 01:30:50;;;;;;;3.47;2.53;;;;;;;19.97;nan;101496.09;2063903;28;20050;-65
2022/08/13 01:31:55;;;;;;;4.95;3.13;;;;;;;19.95;nan;101496.41;2054866;28;20122;-65
2022/08/13 01:33:02;;;;;;;6.85;2.80;;;;;;;19.97;nan;101494.16;2065613;28;20733;-65
2022/08/13 01:34:06;;;;;;;6.43;2.78;;;;;;;19.96;nan;101495.31;2074789;28;20049;-65
2022/08/13 01:35:08;;;;;;;3.20;2.90;;;;;;;19.93;nan;101487.75;2071157;28;20474;-65
2022/08/13 01:36:11;;;;;;;5.30;3.10;;;;;;;19.93;nan;101487.75;2079461;28;20033;-65
2022/08/13 01:37:15;;;;;;;5.90;2.97;;;;;;;19.94;nan;101486.63;2074294;28;20067;-65
2022/08/13 01:38:21;;;;;;;7.78;2.95;;;;;;;19.93;nan;101486.97;2065087;28;20061;-65
2022/08/13 01:39:28;;;;;;;8.35;3.00;;;;;;;19.96;nan;101487.13;2070517;28;20204;-66
2022/08/13 01:40:31;;;;;;;3.78;2.72;;;;;;;19.98;nan;101490.31;2063611;28;20050;-67
2022/08/13 01:41:36;;;;;;;6.22;3.05;;;;;;;19.99;nan;101483.75;2071185;28;20046;-67
2022/08/13 01:42:43;;;;;;;5.35;3.28;;;;;;;20.02;nan;101485.84;2062374;28;20046;-66
2022/08/13 01:43:48;;;;;;;7.10;3.30;;;;;;;20.04;nan;101482.78;2071075;28;20498;-67
2022/08/13 01:44:55;;;;;;;5.32;3.35;;;;;;;20.01;nan;101486.16;2070696;28;20048;-66
2022/08/13 01:46:02;;;;;;;10.13;3.50;;;;;;;20.06;nan;101492.25;2069926;28;20061;-66
2022/08/13 01:50:29;;;;;;;3.92;2.88;;;;;;;20.01;nan;101489.66;2060360;28;20430;-66
2022/08/13 01:51:36;;;;;;;5.20;2.53;;;;;;;19.96;nan;101492.56;2056852;28;20047;-67
2022/08/13 01:52:42;;;;;;;3.83;2.80;;;;;;;19.95;nan;101490.94;2062048;28;20057;-68
2022/08/13 01:53:47;;;;;;;9.15;3.20;;;;;;;19.94;nan;101483.88;2055109;28;20120;-66
2022/08/13 01:54:52;;;;;;;5.93;3.00;;;;;;;19.90;nan;101481.00;2054857;28;20049;-66
2022/08/13 01:55:55;;;;;;;4.82;3.05;;;;;;;19.88;nan;101483.22;2058315;28;20047;-66
2022/08/13 01:57:01;;;;;;;6.32;2.90;;;;;;;19.89;nan;101486.75;2063222;28;20105;-67
2022/08/13 01:58:04;;;;;;;3.75;2.65;;;;;;;19.88;nan;101476.97;2070112;28;20065;-66
2022/08/13 01:59:11;;;;;;;5.65;2.65;;;;;;;19.89;nan;101482.13;2055248;28;20491;-66
2022/08/13 02:00:21;;;;;;;2.95;2.35;;;;;;;19.92;nan;101477.94;2062347;28;20034;-66
2022/08/13 02:01:30;;;;;;;5.75;2.60;;;;;;;19.92;nan;101477.94;2071090;28;20057;-66
2022/08/13 02:02:41;;;;;;;2.92;2.42;;;;;;;19.84;nan;101479.53;2061423;28;20057;-66
2022/08/13 02:03:49;;;;;;;4.88;2.97;;;;;;;19.79;nan;101476.97;2064709;28;20050;-65
2022/08/13 02:05:00;;;;;;;4.25;2.63;;;;;;;19.79;nan;101478.88;2069546;28;20041;-66
2022/08/13 02:06:03;;;;;;;4.25;2.65;;;;;;;19.75;nan;101476.00;2061612;28;20054;-66
2022/08/13 02:07:09;;;;;;;5.40;2.75;;;;;;;19.74;nan;101479.06;2066313;28;20054;-66
2022/08/13 02:08:12;;;;;;;4.13;2.75;;;;;;;19.74;nan;101479.06;2079194;28;20041;-67
2022/08/13 02:09:15;;;;;;;5.35;2.80;;;;;;;19.72;nan;101467.66;2078774;28;20474;-66
2022/08/13 02:10:21;;;;;;;4.15;2.70;;;;;;;19.74;nan;101474.41;2078747;28;20045;-66
2022/08/13 02:11:23;;;;;;;3.22;2.70;;;;;;;19.74;nan;101484.50;2078591;28;20037;-67
2022/08/13 02:12:24;;;;;;;4.07;2.47;;;;;;;19.72;nan;101479.34;2063070;28;20533;-67
2022/08/13 02:13:29;;;;;;;5.78;2.95;;;;;;;19.73;nan;101478.22;2062971;28;20045;-66
2022/08/13 02:14:34;;;;;;;5.43;3.00;;;;;;;19.73;nan;101480.97;2079223;28;20042;-66
2022/08/13 02:15:40;;;;;;;2.90;2.50;;;;;;;19.74;nan;101479.84;2062612;28;20046;-66
2022/08/13 02:16:47;;;;;;;;;;;;;;;19.73;nan;101480.16;2065811;28;20157;-66
2022/08/13 02:17:50;;;;;;;4.07;2.53;;;;;;;19.75;nan;101480.66;2069870;28;19913;-66
2022/08/13 02:18:53;;;;;;;4.75;2.53;;;;;;;19.77;nan;101486.59;2076621;28;20342;-66
2022/08/13 02:20:01;;;;;;;5.07;2.17;;;;;;;19.71;nan;101485.16;2079195;28;20045;-66
2022/08/13 02:21:06;;;;;;;4.72;2.80;;;;;;;19.65;nan;101477.09;2080041;28;20483;-67
2022/08/13 02:22:12;;;;;;;5.30;2.60;;;;;;;19.62;nan;101480.44;2084102;28;20030;-66
2022/08/13 02:23:19;;;;;;;3.03;2.60;;;;;;;19.57;nan;101480.56;2078245;28;20029;-68
2022/08/13 02:24:21;;;;;;;3.55;2.65;;;;;;;19.60;nan;101482.66;2071192;28;20034;-66
2022/08/13 02:25:29;;;;;;;3.92;2.97;;;;;;;19.62;nan;101474.19;2070810;28;20063;-66
2022/08/13 02:26:37;;;;;;;3.42;2.70;;;;;;;19.64;nan;101483.69;2071715;28;20057;-65
2022/08/13 02:27:48;;;;;;;3.78;2.72;;;;;;;19.63;nan;101482.03;2071431;28;20038;-67
2022/08/13 02:29:11;;;;;;;3.67;2.55;;;;;;;19.62;nan;101483.16;2062685;28;20562;-67
2022/08/13 02:30:16;;;;;;;4.57;2.67;;;;;;;19.65;nan;101482.56;2066878;28;20061;-67
2022/08/13 02:31:18;;;;;;;5.32;2.70;;;;;;;19.59;nan;101483.00;2078937;28;20058;-67
2022/08/13 02:32:23;;;;;;;3.15;2.42;;;;;;;19.58;nan;101484.13;2062991;28;20414;-67
2022/08/13 02:33:28;;;;;;;3.67;2.70;;;;;;;19.54;nan;101474.94;2063830;28;20058;-67
2022/08/13 02:34:33;;;;;;;3.55;2.60;;;;;;;19.55;nan;101480.09;2078644;28;20072;-68
2022/08/13 02:35:35;;;;;;;3.15;2.55;;;;;;;19.55;nan;101477.38;2070917;28;20034;-67
2022/08/13 02:36:40;;;;;;;3.85;2.55;;;;;;;19.55;nan;101482.81;2063101;28;20046;-67
2022/08/13 02:37:42;;;;;;;6.47;2.80;;;;;;;19.56;nan;101484.44;2076780;28;20040;-67
2022/08/13 02:38:54;;;;;;;5.20;3.00;;;;;;;19.56;nan;101486.34;2079129;28;20052;-66
2022/08/13 02:39:56;;;;;;;3.08;2.63;;;;;;;19.54;nan;101481.19;2078716;28;20045;-66
2022/08/13 02:42:22;;;;;;;4.60;2.75;;;;;;;19.45;nan;101477.63;2076334;28;20513;-68
2022/08/13 02:43:26;;;;;;;4.18;2.80;;;;;;;19.45;nan;101470.28;2078927;28;20045;-68
2022/08/13 02:44:33;;;;;;;4.03;2.90;;;;;;;19.44;nan;101476.03;2071139;28;20038;-67
2022/08/13 02:45:36;;;;;;;6.45;3.28;;;;;;;19.47;nan;101475.41;2071756;28;20038;-67
2022/08/13 02:46:43;;;;;;;4.38;2.88;;;;;;;19.47;nan;101472.69;2079431;28;20053;-67
2022/08/13 02:47:45;;;;;;;9.45;2.70;;;;;;;19.49;nan;101478.63;2079000;28;20429;-67
2022/08/13 02:48:52;;;;;;;3.45;2.65;;;;;;;19.44;nan;101471.38;2078885;28;20056;-67
2022/08/13 02:49:59;;;;;;;4.55;2.72;;;;;;;19.44;nan;101476.03;2071444;28;20049;-67
2022/08/13 02:51:04;;;;;;;7.22;3.28;;;;;;;19.47;nan;101475.41;2079159;28;20042;-67
2022/08/13 02:52:15;;;;;;;3.10;2.80;;;;;;;19.46;nan;101476.53;2078952;28;20088;-67
2022/08/13 02:53:20;;;;;;;3.53;2.60;;;;;;;19.42;nan;101468.19;2070948;28;20054;-67
2022/08/13 02:54:25;;;;;;;5.15;3.00;;;;;;;19.45;nan;101469.47;2063656;28;20046;-67
2022/08/13 02:55:29;;;;;;;7.82;2.95;;;;;;;19.45;nan;101477.63;2078744;28;20045;-67
2022/08/13 02:56:34;;;;;;;5.80;2.97;;;;;;;19.46;nan;101471.09;2066617;28;20061;-67
2022/08/13 02:57:39;;;;;;;4.55;3.03;;;;;;;19.47;nan;101472.69;2067076;28;20038;-67
2022/08/13 02:58:43;;;;;;;4.93;3.00;;;;;;;19.49;nan;101467.72;2078639;28;20037;-67
2022/08/13 02:59:45;;;;;;;5.57;2.95;;;;;;;19.51;nan;101465.47;2078759;28;20037;-67
2022/08/13 03:00:51;;;;;;;6.75;3.10;;;;;;;19.52;nan;101464.38;2078372;28;20045;-67
2022/08/13 03:01:58;;;;;;;8.23;3.10;;;;;;;19.51;nan;101464.66;2078256;28;20046;-68
2022/08/13 03:03:04;;;;;;;6.85;2.85;;;;;;;19.49;nan;101467.72;2070597;28;20038;-67
2022/08/13 03:04:07;;;;;;;5.18;3.28;;;;;;;19.51;nan;101462.75;2070827;28;20045;-67
2022/08/13 03:05:12;;;;;;;5.80;3.05;;;;;;;19.53;nan;101468.69;2070587;28;20041;-67
2022/08/13 03:06:19;;;;;;;7.47;3.33;;;;;;;19.54;nan;101470.28;2062682;28;20049;-65
2022/08/13 03:07:25;;;;;;;6.60;3.03;;;;;;;19.59;nan;101467.44;2060064;28;20415;-67
2022/08/13 03:08:33;;;;;;;6.00;2.97;;;;;;;19.59;nan;101472.88;2065495;28;20403;-68
2022/08/13 03:09:38;;;;;;;7.22;3.30;;;;;;;19.57;nan;101464.19;2070558;28;20426;-67
2022/08/13 03:10:41;;;;;;;5.57;2.92;;;;;;;19.57;nan;101464.19;2062473;28;20422;-67
2022/08/13 03:11:47;;;;;;;5.93;3.60;;;;;;;19.58;nan;101465.03;2062791;28;20045;-67
2022/08/13 03:13:16;;;;;;;5.93;3.20;;;;;;;19.57;nan;101464.19;2063357;28;20034;-67
2022/08/13 03:14:21;;;;;;;4.97;3.10;;;;;;;19.59;nan;101461.97;2067201;28;20370;-66
2022/08/13 03:15:26;;;;;;;5.40;3.10;;;;;;;19.58;nan;101463.09;2070549;28;20069;-65
2022/08/13 03:16:27;;;;;;;4.57;2.92;;;;;;;19.61;nan;101465.19;2062487;28;20046;-66
2022/08/13 03:17:33;;;;;;;4.80;2.88;;;;;;;19.59;nan;101461.16;2039041;28;20040;-67
2022/08/13 03:18:35;;;;;;;6.13;3.00;;;;;;;19.59;nan;101463.91;2048979;28;20592;-66
2022/08/13 03:19:39;;;;;;;4.10;2.88;;;;;;;19.59;nan;101472.09;2050771;28;20428;-66
2022/08/13 03:20:43;;;;;;;4.55;3.20;;;;;;;19.56;nan;101473.50;2063444;28;20038;-67
2022/08/13 03:21:49;;;;;;;7.28;2.92;;;;;;;19.50;nan;101469.31;2070244;28;20042;-67
2022/08/13 03:22:58;;;;;;;5.22;2.80;;;;;;;19.48;nan;101465.31;2063779;28;20046;-67
2022/08/13 03:24:03;;;;;;;;;;;;;;;19.49;nan;101467.72;2071071;28;20042;-65
2022/08/13 03:25:07;;;;;;;5.60;3.42;;;;;;;19.43;nan;101463.53;2063049;28;19944;-66
2022/08/13 03:26:17;;;;;;;15.05;7.45;;;;;;;19.41;nan;101463.03;2071859;28;20046;-66
2022/08/13 03:27:27;;;;;;;8.48;4.68;;;;;;;19.41;nan;101469.28;2078440;28;20425;-66
2022/08/13 03:28:29;;;;;;;5.80;3.40;;;;;;;19.43;nan;101469.00;2070838;28;20046;-66
2022/08/13 03:29:31;;;;;;;5.00;3.45;;;;;;;19.43;nan;101469.78;2062609;28;20042;-66
2022/08/13 03:30:37;;;;;;;5.80;3.40;;;;;;;19.41;nan;101471.22;2062950;28;20065;-66
2022/08/13 03:31:41;;;;;;;5.32;3.58;;;;;;;19.37;nan;101470.25;2063972;28;20050;-66
2022/08/13 03:32:48;;;;;;;7.60;4.05;;;;;;;19.40;nan;101469.63;2064813;28;20046;-65
2022/08/13 03:33:53;;;;;;;5.00;3.70;;;;;;;19.37;nan;101464.78;2064728;28;20042;-67
2022/08/13 03:34:57;;;;;;;6.80;3.70;;;;;;;19.33;nan;101466.56;2064879;28;20039;-66
2022/08/13 03:36:01;;;;;;;7.55;3.30;;;;;;;19.30;nan;101461.72;2056398;28;20049;-67
2022/08/13 03:37:09;;;;;;;5.65;3.17;;;;;;;19.30;nan;101464.47;2063424;28;20042;-66
2022/08/13 03:38:15;;;;;;;8.50;3.70;;;;;;;19.29;nan;101460.09;2077302;28;20034;-66
2022/08/13 03:39:18;;;;;;;7.15;3.30;;;;;;;19.31;nan;101461.41;2088757;28;20057;-66
2022/08/13 03:40:25;;;;;;;5.10;3.67;;;;;;;19.33;nan;101463.81;2087875;28;20052;-66
2022/08/13 03:41:30;;;;;;;6.15;3.47;;;;;;;19.32;nan;101457.53;2083997;28;20052;-66
2022/08/13 03:42:35;;;;;;;6.03;3.47;;;;;;;19.33;nan;101463.81;2080368;28;20045;-65
2022/08/13 03:43:45;;;;;;;7.18;3.30;;;;;;;19.36;nan;101457.75;2072035;28;20050;-67
2022/08/13 03:44:50;;;;;;;6.03;3.25;;;;;;;19.42;nan;101459.22;2064880;28;20441;-66
2022/08/13 03:45:54;;;;;;;7.20;3.28;;;;;;;19.45;nan;101458.53;2072065;28;20054;-66
2022/08/13 03:46:59;;;;;;;6.60;3.80;;;;;;;19.45;nan;101453.91;2071985;28;20037;-67
2022/08/13 03:48:07;;;;;;;7.00;3.60;;;;;;;19.48;nan;101452.47;2072061;28;20041;-67
2022/08/13 03:49:10;;;;;;;5.07;3.13;;;;;;;19.52;nan;101452.66;2079794;28;20041;-67
2022/08/13 03:50:17;;;;;;;5.78;3.08;;;;;;;19.57;nan;101453.28;2079866;28;20052;-68
2022/08/13 03:51:23;;;;;;;6.93;3.20;;;;;;;19.59;nan;101453.78;2071917;28;20041;-65
2022/08/13 03:52:30;;;;;;;11.25;3.60;;;;;;;19.60;nan;101447.19;2066737;28;20161;-66
2022/08/13 03:53:32;;;;;;;3.58;3.17;;;;;;;19.63;nan;101443.84;2072635;28;20814;-66
2022/08/13 03:54:37;;;;;;;3.60;2.97;;;;;;;19.66;nan;101448.69;2080222;28;20037;-66
2022/08/13 03:55:42;;;;;;;4.53;3.05;;;;;;;19.68;nan;101446.47;2088104;28;20447;-66
2022/08/13 03:56:46;;;;;;;6.65;3.83;;;;;;;19.72;nan;101448.53;2079989;28;20092;-65
2022/08/13 03:57:51;;;;;;;6.68;3.63;;;;;;;19.77;nan;101442.94;2074410;28;20049;-66
2022/08/13 03:59:01;;;;;;;6.53;3.10;;;;;;;19.82;nan;101442.78;2080037;28;20501;-66
2022/08/13 04:00:12;;;;;;;6.22;3.60;;;;;;;19.84;nan;101435.88;2078569;28;20052;-67
2022/08/13 04:01:17;;;;;;;4.95;3.17;;;;;;;19.90;nan;101445.53;2071702;28;20037;-66
2022/08/13 04:02:22;;;;;;;5.45;3.45;;;;;;;19.94;nan;101429.31;2063265;28;20616;-67
2022/08/13 04:03:29;;;;;;;8.18;3.20;;;;;;;19.99;nan;101437.34;2071579;28;20053;-67
2022/08/13 04:04:33;;;;;;;7.28;3.35;;;;;;;20.06;nan;101431.41;2063590;28;20041;-67
2022/08/13 04:05:37;;;;;;;8.10;2.97;;;;;;;20.10;nan;101432.34;2064155;28;20038;-66
2022/08/13 04:06:41;;;;;;;6.88;3.10;;;;;;;20.16;nan;101430.28;2071611;28;20065;-67
2022/08/13 04:07:50;;;;;;;3.70;2.70;;;;;;;20.25;nan;101439.25;2071813;28;20040;-66
2022/08/13 04:08:58;;;;;;;5.28;3.03;;;;;;;20.31;nan;101441.50;2072012;28;20034;-67
2022/08/13 04:10:00;;;;;;;7.28;3.33;;;;;;;20.38;nan;101443.75;2071354;28;20084;-68
2022/08/13 04:11:14;;;;;;;5.70;3.00;;;;;;;20.45;nan;101443.25;2071566;28;20362;-67
2022/08/13 04:12:16;;;;;;;5.20;2.83;;;;;;;20.50;nan;101443.88;2071646;28;20040;-66
2022/08/13 04:13:19;;;;;;;6.95;3.20;;;;;;;20.59;nan;101449.38;2071835;28;20038;-67
2022/08/13 04:14:23;;;;;;;3.40;2.70;;;;;;;20.67;nan;101450.47;2071909;28;20042;-67
2022/08/13 04:15:25;;;;;;;4.38;3.22;;;;;;;20.67;nan;101450.47;2071232;28;20050;-66
2022/08/13 04:16:34;;;;;;;4.95;2.80;;;;;;;20.71;nan;101446.78;2064070;28;20058;-67
2022/08/13 04:17:40;;;;;;;4.53;3.00;;;;;;;20.79;nan;101447.88;2064830;28;20101;-67
2022/08/13 04:18:46;;;;;;;6.82;2.75;;;;;;;20.87;nan;101438.84;2082999;28;20049;-66
2022/08/13 04:19:48;;;;;;;3.88;3.00;;;;;;;20.94;nan;101444.63;2074390;28;20029;-67
2022/08/13 04:21:01;;;;;;;10.32;3.05;;;;;;;20.99;nan;101435.41;2079909;28;20048;-65
2022/08/13 04:22:05;;;;;;;5.00;3.10;;;;;;;21.03;nan;101437.19;2079080;28;20492;-66
2022/08/13 04:23:34;;;;;;;5.65;3.00;;;;;;;21.05;nan;101434.91;2063784;28;20521;-66
2022/08/13 04:24:36;;;;;;;6.03;2.80;;;;;;;21.10;nan;101436.66;2066625;28;20057;-66
2022/08/13 04:25:39;;;;;;;4.82;2.90;;;;;;;21.14;nan;101434.06;2072442;28;20482;-67
2022/08/13 04:26:43;;;;;;;5.07;2.70;;;;;;;21.14;nan;101432.13;2071745;28;20045;-67
2022/08/13 04:27:46;;;;;;;6.72;2.60;;;;;;;21.21;nan;101435.16;2063473;28;20607;-66
2022/08/13 04:28:50;;;;;;;3.38;2.67;;;;;;;21.25;nan;101433.38;2063663;28;20770;-67
2022/08/13 04:29:59;;;;;;;4.40;2.95;;;;;;;21.33;nan;101433.66;2079738;28;20049;-66
2022/08/13 04:31:06;;;;;;;7.70;2.78;;;;;;;21.39;nan;101441.38;2079954;28;20045;-66
2022/08/13 04:32:13;;;;;;;5.32;3.00;;;;;;;21.47;nan;101437.81;2078884;28;20064;-66
2022/08/13 04:33:16;;;;;;;4.68;2.50;;;;;;;21.57;nan;101438.56;2077967;28;20564;-66
2022/08/13 04:34:24;;;;;;;3.25;2.55;;;;;;;21.64;nan;101444.31;2078638;28;20037;-68
2022/08/13 04:35:29;;;;;;;14.65;3.15;;;;;;;21.71;nan;101444.56;2071798;28;20041;-66
2022/08/13 04:36:33;;;;;;;7.55;3.05;;;;;;;21.80;nan;101444.50;2063512;28;20037;-66
2022/08/13 04:37:37;;;;;;;5.65;2.83;;;;;;;21.89;nan;101448.78;2063926;28;20046;-66
2022/08/13 04:38:42;;;;;;;10.07;2.60;;;;;;;21.94;nan;101443.13;2079495;28;20041;-65
2022/08/13 04:39:46;;;;;;;5.90;2.60;;;;;;;22.01;nan;101455.47;2072443;28;20117;-66
2022/08/13 04:40:48;;;;;;;5.03;2.40;;;;;;;22.07;nan;101448.63;2080021;28;20037;-66
2022/08/13 04:41:50;;;;;;;5.55;2.50;;;;;;;22.12;nan;101443.75;2071845;28;20044;-66
2022/08/13 04:42:54;;;;;;;10.75;2.90;;;;;;;22.15;nan;101439.56;2071622;28;20038;-66
2022/08/13 04:43:56;;;;;;;4.90;2.50;;;;;;;22.19;nan;101443.25;2080142;28;20045;-66
2022/08/13 04:45:00;;;;;;;5.63;3.40;;;;;;;22.24;nan;101443.06;2079966;28;20036;-66
2022/08/13 04:46:05;;;;;;;5.32;3.60;;;;;;;22.28;nan;101438.50;2080136;28;20397;-66
2022/08/13 04:47:10;;;;;;;9.32;3.00;;;;;;;22.36;nan;101439.56;2080046;28;20631;-66
2022/08/13 04:48:15;;;;;;;4.20;2.60;;;;;;;22.39;nan;101436.94;2070993;28;20058;-66
2022/08/13 04:49:17;;;;;;;5.93;2.50;;;;;;;22.39;nan;101431.47;2062533;28;20141;-66
2022/08/13 04:50:23;;;;;;;4.57;2.20;;;;;;;22.44;nan;101433.97;2062969;28;20100;-67
2022/08/13 04:51:36;;;;;;;4.47;2.30;;;;;;;22.47;nan;101426.22;2069930;28;20073;-67
2022/08/13 04:52:44;;;;;;;4.45;2.38;;;;;;;22.47;nan;101426.22;2070053;28;20045;-65
2022/08/13 04:53:50;;;;;;;10.52;2.60;;;;;;;22.41;nan;101423.72;2078923;28;20041;-67
2022/08/13 04:54:54;;;;;;;6.13;2.20;;;;;;;22.28;nan;101424.78;2086256;28;20033;-67
2022/08/13 04:56:02;;;;;;;5.18;2.50;;;;;;;22.16;nan;101427.50;2071441;28;20042;-67
2022/08/13 04:57:07;;;;;;;8.30;2.10;;;;;;;22.08;nan;101422.88;2062119;28;20066;-67
2022/08/13 04:58:09;;;;;;;3.58;2.35;;;;;;;21.98;nan;101426.81;2070327;28;20046;-67
2022/08/13 04:59:14;;;;;;;4.57;2.50;;;;;;;21.92;nan;101433.63;2070434;28;20121;-67
2022/08/13 05:00:20;;;;;;;4.70;2.30;;;;;;;21.90;nan;101428.47;2077844;28;20409;-66
2022/08/13 05:01:23;;;;;;;5.03;2.28;;;;;;;21.95;nan;101425.53;2078777;28;20436;-66
2022/08/13 05:02:25;;;;;;;3.55;2.20;;;;;;;22.01;nan;101425.34;2078345;28;20034;-66
2022/08/13 05:03:29;;;;;;;6.57;2.20;;;;;;;21.98;nan;101427.63;2077817;28;20139;-67
2022/08/13 05:04:31;;;;;;;4.47;2.00;;;;;;;21.91;nan;101424.63;2064131;28;20052;-66
2022/08/13 05:05:37;;;;;;;6.35;2.75;;;;;;;21.89;nan;101429.63;2062102;28;20054;-66
2022/08/13 05:06:43;;;;;;;3.00;2.10;;;;;;;21.85;nan;101423.22;2068701;28;20046;-68
2022/08/13 05:07:51;;;;;;;4.22;2.30;;;;;;;21.81;nan;101422.25;2054902;28;20054;-67
2022/08/13 05:08:58;;;;;;;5.72;2.00;;;;;;;21.77;nan;101426.00;2070225;28;20522;-65
2022/08/13 05:10:05;;;;;;;6.57;2.30;;;;;;;21.76;nan;101427.97;2075536;28;20037;-64
2022/08/13 05:11:12;;;;;;;8.55;2.67;;;;;;;21.75;nan;101424.41;2070066;28;20049;-67
2022/08/13 05:12:14;;;;;;;3.90;2.13;;;;;;;21.78;nan;101424.88;2069386;28;20481;-66
2022/08/13 05:13:32;;;;;;;7.25;2.35;;;;;;;21.79;nan;101419.06;2062174;28;20046;-66
2022/08/13 05:14:37;;;;;;;4.43;1.90;;;;;;;21.82;nan;101423.09;2070253;28;20104;-67
2022/08/13 05:15:39;;;;;;;9.77;2.65;;;;;;;21.89;nan;101413.19;2063913;28;20042;-67
2022/08/13 05:16:44;;;;;;;6.47;2.10;;;;;;;22.05;nan;101420.81;2062226;28;20053;-67
2022/08/13 05:17:48;;;;;;;7.18;2.20;;;;;;;22.24;nan;101417.59;2070126;28;20037;-67
2022/08/13 05:18:57;;;;;;;4.55;2.53;;;;;;;22.40;nan;101421.31;2069184;28;20041;-66
2022/08/13 05:20:10;;;;;;;4.65;2.10;;;;;;;22.58;nan;101422.72;2070300;28;20045;-66
2022/08/13 05:21:16;;;;;;;4.57;2.20;;;;;;;22.77;nan;101427.69;2068637;28;20426;-66
2022/08/13 05:22:17;;;;;;;6.45;2.45;;;;;;;22.94;nan;101428.66;2069632;28;20089;-66